sensor_id;sensor_type;location;lat;lon;timestamp;P1;durP1;ratioP1;P2;durP2;ratioP2
46781;SDS011;32541;46.298;11.506;2023-04-16T00:01:31;2.33;;;0.70;;
46781;SDS011;32541;46.298;11.506;2023-04-16T00:03:56;1.23;;;0.30;;
46781;SDS011;32541;46.298;11.506;2023-04-16T00:06:21;1.13;;;0.40;;
46781;SDS011;32541;46.298;11.506;2023-04-16T00:08:47;1.60;;;0.30;;
46781;SDS011;32541;46.298;11.506;2023-04-16T00:11:12;1.23;;;0.30;;
46781;SDS011;32541;46.298;11.506;2023-04-16T00:13:38;2.07;;;0.53;;
46781;SDS011;32541;46.298;11.506;2023-04-16T00:16:03;0.80;;;0.40;;
46781;SDS011;32541;46.298;11.506;2023-04-16T00:18:29;0.53;;;0.23;;
46781;SDS011;32541;46.298;11.506;2023-04-16T00:20:54;0.97;;;0.47;;
46781;SDS011;32541;46.298;11.506;2023-04-16T00:23:20;0.73;;;0.40;;
46781;SDS011;32541;46.298;11.506;2023-04-16T00:25:45;1.10;;;0.40;;
46781;SDS011;32541;46.298;11.506;2023-04-16T00:28:11;3.33;;;0.37;;
46781;SDS011;32541;46.298;11.506;2023-04-16T00:30:36;2.60;;;0.30;;
46781;SDS011;32541;46.298;11.506;2023-04-16T00:33:02;1.43;;;0.30;;
46781;SDS011;32541;46.298;11.506;2023-04-16T00:35:28;0.87;;;0.47;;
46781;SDS011;32541;46.298;11.506;2023-04-16T00:37:54;1.10;;;0.30;;
46781;SDS011;32541;46.298;11.506;2023-04-16T00:40:19;1.40;;;0.40;;
46781;SDS011;32541;46.298;11.506;2023-04-16T00:42:45;1.00;;;0.40;;
46781;SDS011;32541;46.298;11.506;2023-04-16T00:45:10;1.13;;;0.50;;
46781;SDS011;32541;46.298;11.506;2023-04-16T00:47:36;1.03;;;0.60;;
46781;SDS011;32541;46.298;11.506;2023-04-16T00:50:02;0.90;;;0.40;;
46781;SDS011;32541;46.298;11.506;2023-04-16T00:52:28;0.70;;;0.40;;
46781;SDS011;32541;46.298;11.506;2023-04-16T00:54:55;0.83;;;0.40;;
46781;SDS011;32541;46.298;11.506;2023-04-16T00:57:21;1.60;;;0.30;;
46781;SDS011;32541;46.298;11.506;2023-04-16T00:59:47;0.20;;;0.20;;
46781;SDS011;32541;46.298;11.506;2023-04-16T01:02:13;1.00;;;0.50;;
46781;SDS011;32541;46.298;11.506;2023-04-16T01:04:39;0.50;;;0.30;;
46781;SDS011;32541;46.298;11.506;2023-04-16T01:07:05;1.03;;;0.30;;
46781;SDS011;32541;46.298;11.506;2023-04-16T01:09:30;0.73;;;0.20;;
46781;SDS011;32541;46.298;11.506;2023-04-16T01:11:55;1.00;;;0.50;;
46781;SDS011;32541;46.298;11.506;2023-04-16T01:14:21;0.30;;;0.20;;
46781;SDS011;32541;46.298;11.506;2023-04-16T01:16:46;0.20;;;0.20;;
46781;SDS011;32541;46.298;11.506;2023-04-16T01:19:11;1.57;;;0.30;;
46781;SDS011;32541;46.298;11.506;2023-04-16T01:21:37;1.33;;;0.43;;
46781;SDS011;32541;46.298;11.506;2023-04-16T01:24:02;0.53;;;0.30;;
46781;SDS011;32541;46.298;11.506;2023-04-16T01:26:28;0.90;;;0.27;;
46781;SDS011;32541;46.298;11.506;2023-04-16T01:28:55;0.97;;;0.40;;
46781;SDS011;32541;46.298;11.506;2023-04-16T01:31:20;1.20;;;0.30;;
46781;SDS011;32541;46.298;11.506;2023-04-16T01:33:45;0.53;;;0.20;;
46781;SDS011;32541;46.298;11.506;2023-04-16T01:36:11;1.60;;;0.50;;
46781;SDS011;32541;46.298;11.506;2023-04-16T01:38:36;2.10;;;0.60;;
46781;SDS011;32541;46.298;11.506;2023-04-16T01:41:01;0.67;;;0.30;;
46781;SDS011;32541;46.298;11.506;2023-04-16T01:43:27;0.73;;;0.30;;
46781;SDS011;32541;46.298;11.506;2023-04-16T01:45:58;0.50;;;0.30;;
46781;SDS011;32541;46.298;11.506;2023-04-16T01:48:53;0.93;;;0.30;;
46781;SDS011;32541;46.298;11.506;2023-04-16T01:51:19;0.43;;;0.20;;
46781;SDS011;32541;46.298;11.506;2023-04-16T01:53:45;0.40;;;0.20;;
46781;SDS011;32541;46.298;11.506;2023-04-16T01:56:11;0.10;;;0.10;;
46781;SDS011;32541;46.298;11.506;2023-04-16T01:58:36;0.63;;;0.20;;
46781;SDS011;32541;46.298;11.506;2023-04-16T02:01:02;0.63;;;0.37;;
46781;SDS011;32541;46.298;11.506;2023-04-16T02:03:29;0.93;;;0.30;;
46781;SDS011;32541;46.298;11.506;2023-04-16T02:05:55;0.40;;;0.10;;
46781;SDS011;32541;46.298;11.506;2023-04-16T02:08:20;0.97;;;0.43;;
46781;SDS011;32541;46.298;11.506;2023-04-16T02:10:46;0.77;;;0.40;;
46781;SDS011;32541;46.298;11.506;2023-04-16T02:13:14;0.47;;;0.30;;
46781;SDS011;32541;46.298;11.506;2023-04-16T02:15:43;1.07;;;0.30;;
46781;SDS011;32541;46.298;11.506;2023-04-16T02:18:12;0.57;;;0.30;;
46781;SDS011;32541;46.298;11.506;2023-04-16T02:20:41;0.27;;;0.20;;
46781;SDS011;32541;46.298;11.506;2023-04-16T02:23:08;0.27;;;0.20;;
46781;SDS011;32541;46.298;11.506;2023-04-16T02:25:37;0.93;;;0.27;;
46781;SDS011;32541;46.298;11.506;2023-04-16T02:28:05;0.30;;;0.17;;
46781;SDS011;32541;46.298;11.506;2023-04-16T02:30:31;1.63;;;0.97;;
46781;SDS011;32541;46.298;11.506;2023-04-16T02:32:58;5.57;;;1.23;;
46781;SDS011;32541;46.298;11.506;2023-04-16T02:35:25;1.63;;;0.60;;
46781;SDS011;32541;46.298;11.506;2023-04-16T02:37:50;1.23;;;0.50;;
46781;SDS011;32541;46.298;11.506;2023-04-16T02:40:16;4.10;;;1.33;;
46781;SDS011;32541;46.298;11.506;2023-04-16T02:42:41;3.40;;;1.20;;
46781;SDS011;32541;46.298;11.506;2023-04-16T02:45:06;0.63;;;0.30;;
46781;SDS011;32541;46.298;11.506;2023-04-16T02:47:32;3.10;;;0.60;;
46781;SDS011;32541;46.298;11.506;2023-04-16T02:49:58;3.63;;;0.80;;
46781;SDS011;32541;46.298;11.506;2023-04-16T02:52:23;1.87;;;0.40;;
46781;SDS011;32541;46.298;11.506;2023-04-16T02:54:48;0.80;;;0.30;;
46781;SDS011;32541;46.298;11.506;2023-04-16T02:57:14;0.10;;;0.10;;
46781;SDS011;32541;46.298;11.506;2023-04-16T02:59:39;1.03;;;0.20;;
46781;SDS011;32541;46.298;11.506;2023-04-16T03:02:04;0.40;;;0.20;;
46781;SDS011;32541;46.298;11.506;2023-04-16T03:04:31;0.63;;;0.20;;
46781;SDS011;32541;46.298;11.506;2023-04-16T03:06:57;0.63;;;0.20;;
46781;SDS011;32541;46.298;11.506;2023-04-16T03:09:22;0.97;;;0.30;;
46781;SDS011;32541;46.298;11.506;2023-04-16T03:11:47;0.67;;;0.30;;
46781;SDS011;32541;46.298;11.506;2023-04-16T03:14:13;0.60;;;0.40;;
46781;SDS011;32541;46.298;11.506;2023-04-16T03:16:38;0.70;;;0.20;;
46781;SDS011;32541;46.298;11.506;2023-04-16T03:19:03;0.63;;;0.40;;
46781;SDS011;32541;46.298;11.506;2023-04-16T03:21:29;0.63;;;0.20;;
46781;SDS011;32541;46.298;11.506;2023-04-16T03:23:55;0.20;;;0.20;;
46781;SDS011;32541;46.298;11.506;2023-04-16T03:26:21;0.30;;;0.20;;
46781;SDS011;32541;46.298;11.506;2023-04-16T03:28:46;0.30;;;0.13;;
46781;SDS011;32541;46.298;11.506;2023-04-16T03:31:12;0.40;;;0.13;;
46781;SDS011;32541;46.298;11.506;2023-04-16T03:33:37;1.83;;;0.23;;
46781;SDS011;32541;46.298;11.506;2023-04-16T03:36:02;0.40;;;0.20;;
46781;SDS011;32541;46.298;11.506;2023-04-16T03:38:28;2.67;;;0.30;;
46781;SDS011;32541;46.298;11.506;2023-04-16T03:40:53;0.77;;;0.30;;
46781;SDS011;32541;46.298;11.506;2023-04-16T03:43:18;2.13;;;0.53;;
46781;SDS011;32541;46.298;11.506;2023-04-16T03:45:44;0.93;;;0.60;;
46781;SDS011;32541;46.298;11.506;2023-04-16T03:48:10;2.30;;;0.50;;
46781;SDS011;32541;46.298;11.506;2023-04-16T03:50:35;1.40;;;0.70;;
46781;SDS011;32541;46.298;11.506;2023-04-16T03:53:01;0.90;;;0.63;;
46781;SDS011;32541;46.298;11.506;2023-04-16T03:55:27;0.60;;;0.50;;
46781;SDS011;32541;46.298;11.506;2023-04-16T03:57:52;0.20;;;0.20;;
46781;SDS011;32541;46.298;11.506;2023-04-16T04:00:17;0.50;;;0.30;;
46781;SDS011;32541;46.298;11.506;2023-04-16T04:02:43;0.53;;;0.23;;
46781;SDS011;32541;46.298;11.506;2023-04-16T04:05:08;0.30;;;0.30;;
46781;SDS011;32541;46.298;11.506;2023-04-16T04:07:34;0.50;;;0.20;;
46781;SDS011;32541;46.298;11.506;2023-04-16T04:10:00;2.93;;;0.40;;
46781;SDS011;32541;46.298;11.506;2023-04-16T04:12:25;0.20;;;0.10;;
46781;SDS011;32541;46.298;11.506;2023-04-16T04:14:51;0.30;;;0.13;;
46781;SDS011;32541;46.298;11.506;2023-04-16T04:17:16;0.30;;;0.20;;
46781;SDS011;32541;46.298;11.506;2023-04-16T04:19:42;0.53;;;0.37;;
46781;SDS011;32541;46.298;11.506;2023-04-16T04:22:07;0.93;;;0.30;;
46781;SDS011;32541;46.298;11.506;2023-04-16T04:24:32;0.93;;;0.43;;
46781;SDS011;32541;46.298;11.506;2023-04-16T04:26:58;0.73;;;0.33;;
46781;SDS011;32541;46.298;11.506;2023-04-16T04:29:23;0.50;;;0.27;;
46781;SDS011;32541;46.298;11.506;2023-04-16T04:31:48;1.03;;;0.33;;
46781;SDS011;32541;46.298;11.506;2023-04-16T04:34:14;0.80;;;0.37;;
46781;SDS011;32541;46.298;11.506;2023-04-16T04:36:39;0.20;;;0.20;;
46781;SDS011;32541;46.298;11.506;2023-04-16T04:39:05;0.37;;;0.20;;
46781;SDS011;32541;46.298;11.506;2023-04-16T04:41:30;0.70;;;0.40;;
46781;SDS011;32541;46.298;11.506;2023-04-16T04:43:55;0.57;;;0.30;;
46781;SDS011;32541;46.298;11.506;2023-04-16T04:46:21;1.07;;;0.50;;
46781;SDS011;32541;46.298;11.506;2023-04-16T04:48:46;0.83;;;0.40;;
46781;SDS011;32541;46.298;11.506;2023-04-16T04:51:11;1.10;;;0.60;;
46781;SDS011;32541;46.298;11.506;2023-04-16T04:53:37;10.87;;;4.43;;
46781;SDS011;32541;46.298;11.506;2023-04-16T04:56:02;3.90;;;1.77;;
46781;SDS011;32541;46.298;11.506;2023-04-16T04:58:27;2.00;;;0.90;;
46781;SDS011;32541;46.298;11.506;2023-04-16T05:00:53;3.07;;;1.30;;
46781;SDS011;32541;46.298;11.506;2023-04-16T05:03:19;6.93;;;3.10;;
46781;SDS011;32541;46.298;11.506;2023-04-16T05:05:45;4.47;;;2.87;;
46781;SDS011;32541;46.298;11.506;2023-04-16T05:08:11;3.90;;;1.97;;
46781;SDS011;32541;46.298;11.506;2023-04-16T05:10:36;6.67;;;2.87;;
46781;SDS011;32541;46.298;11.506;2023-04-16T05:13:02;3.40;;;2.00;;
46781;SDS011;32541;46.298;11.506;2023-04-16T05:15:27;2.17;;;1.30;;
46781;SDS011;32541;46.298;11.506;2023-04-16T05:17:53;4.17;;;1.70;;
46781;SDS011;32541;46.298;11.506;2023-04-16T05:20:20;32.60;;;15.67;;
46781;SDS011;32541;46.298;11.506;2023-04-16T05:22:48;6.30;;;3.57;;
46781;SDS011;32541;46.298;11.506;2023-04-16T05:25:14;6.20;;;2.97;;
46781;SDS011;32541;46.298;11.506;2023-04-16T05:27:41;4.40;;;2.30;;
46781;SDS011;32541;46.298;11.506;2023-04-16T05:30:06;4.20;;;2.37;;
46781;SDS011;32541;46.298;11.506;2023-04-16T05:32:32;24.87;;;12.43;;
46781;SDS011;32541;46.298;11.506;2023-04-16T05:34:58;23.10;;;10.27;;
46781;SDS011;32541;46.298;11.506;2023-04-16T05:37:23;11.33;;;6.40;;
46781;SDS011;32541;46.298;11.506;2023-04-16T05:39:48;6.70;;;3.10;;
46781;SDS011;32541;46.298;11.506;2023-04-16T05:42:14;9.00;;;3.90;;
46781;SDS011;32541;46.298;11.506;2023-04-16T05:44:39;7.03;;;3.33;;
46781;SDS011;32541;46.298;11.506;2023-04-16T05:47:05;6.10;;;3.10;;
46781;SDS011;32541;46.298;11.506;2023-04-16T05:49:33;7.43;;;3.37;;
46781;SDS011;32541;46.298;11.506;2023-04-16T05:52:00;5.93;;;3.70;;
46781;SDS011;32541;46.298;11.506;2023-04-16T05:54:25;5.80;;;2.87;;
46781;SDS011;32541;46.298;11.506;2023-04-16T05:56:51;44.80;;;22.57;;
46781;SDS011;32541;46.298;11.506;2023-04-16T05:59:16;112.30;;;59.27;;
46781;SDS011;32541;46.298;11.506;2023-04-16T06:01:41;86.90;;;45.07;;
46781;SDS011;32541;46.298;11.506;2023-04-16T06:04:06;7.90;;;3.90;;
46781;SDS011;32541;46.298;11.506;2023-04-16T06:06:32;9.53;;;5.23;;
46781;SDS011;32541;46.298;11.506;2023-04-16T06:08:57;10.53;;;4.57;;
46781;SDS011;32541;46.298;11.506;2023-04-16T06:11:23;6.40;;;4.50;;
46781;SDS011;32541;46.298;11.506;2023-04-16T06:13:48;7.57;;;4.47;;
46781;SDS011;32541;46.298;11.506;2023-04-16T06:16:13;8.50;;;5.43;;
46781;SDS011;32541;46.298;11.506;2023-04-16T06:18:39;7.43;;;4.57;;
46781;SDS011;32541;46.298;11.506;2023-04-16T06:21:04;22.97;;;10.07;;
46781;SDS011;32541;46.298;11.506;2023-04-16T06:23:30;47.00;;;19.27;;
46781;SDS011;32541;46.298;11.506;2023-04-16T06:25:55;46.87;;;20.70;;
46781;SDS011;32541;46.298;11.506;2023-04-16T06:28:20;39.57;;;16.33;;
46781;SDS011;32541;46.298;11.506;2023-04-16T06:30:46;24.03;;;10.23;;
46781;SDS011;32541;46.298;11.506;2023-04-16T06:33:11;17.57;;;7.80;;
46781;SDS011;32541;46.298;11.506;2023-04-16T06:35:37;12.70;;;5.97;;
46781;SDS011;32541;46.298;11.506;2023-04-16T06:38:02;20.63;;;8.63;;
46781;SDS011;32541;46.298;11.506;2023-04-16T06:40:27;15.87;;;6.67;;
46781;SDS011;32541;46.298;11.506;2023-04-16T06:42:53;51.33;;;23.97;;
46781;SDS011;32541;46.298;11.506;2023-04-16T06:45:18;14.43;;;7.57;;
46781;SDS011;32541;46.298;11.506;2023-04-16T06:47:44;13.07;;;7.97;;
46781;SDS011;32541;46.298;11.506;2023-04-16T06:50:09;9.67;;;5.17;;
46781;SDS011;32541;46.298;11.506;2023-04-16T06:52:35;8.37;;;4.17;;
46781;SDS011;32541;46.298;11.506;2023-04-16T06:55:00;8.90;;;4.47;;
46781;SDS011;32541;46.298;11.506;2023-04-16T06:57:26;5.33;;;2.90;;
46781;SDS011;32541;46.298;11.506;2023-04-16T06:59:51;2.77;;;1.77;;
46781;SDS011;32541;46.298;11.506;2023-04-16T07:02:17;2.40;;;1.30;;
46781;SDS011;32541;46.298;11.506;2023-04-16T07:04:42;4.83;;;2.50;;
46781;SDS011;32541;46.298;11.506;2023-04-16T07:07:08;3.60;;;1.90;;
46781;SDS011;32541;46.298;11.506;2023-04-16T07:09:33;1.73;;;0.87;;
46781;SDS011;32541;46.298;11.506;2023-04-16T07:11:58;2.80;;;0.77;;
46781;SDS011;32541;46.298;11.506;2023-04-16T07:14:24;2.00;;;1.23;;
46781;SDS011;32541;46.298;11.506;2023-04-16T07:16:49;2.00;;;1.20;;
46781;SDS011;32541;46.298;11.506;2023-04-16T07:19:14;2.20;;;1.27;;
46781;SDS011;32541;46.298;11.506;2023-04-16T07:21:40;2.00;;;0.93;;
46781;SDS011;32541;46.298;11.506;2023-04-16T07:24:09;1.90;;;0.80;;
46781;SDS011;32541;46.298;11.506;2023-04-16T07:26:35;0.98;;;0.50;;
46781;SDS011;32541;46.298;11.506;2023-04-16T07:29:01;1.27;;;0.68;;
46781;SDS011;32541;46.298;11.506;2023-04-16T07:31:26;0.98;;;0.40;;
46781;SDS011;32541;46.298;11.506;2023-04-16T07:33:51;7.97;;;1.13;;
46781;SDS011;32541;46.298;11.506;2023-04-16T07:36:17;2.17;;;1.33;;
46781;SDS011;32541;46.298;11.506;2023-04-16T07:38:42;0.75;;;0.50;;
46781;SDS011;32541;46.298;11.506;2023-04-16T07:41:08;1.17;;;0.68;;
46781;SDS011;32541;46.298;11.506;2023-04-16T07:43:33;5.93;;;2.97;;
46781;SDS011;32541;46.298;11.506;2023-04-16T07:45:58;11.85;;;5.05;;
46781;SDS011;32541;46.298;11.506;2023-04-16T07:48:24;3.22;;;1.00;;
46781;SDS011;32541;46.298;11.506;2023-04-16T07:50:50;11.20;;;10.25;;
46781;SDS011;32541;46.298;11.506;2023-04-16T07:53:15;6.28;;;2.78;;
46781;SDS011;32541;46.298;11.506;2023-04-16T07:55:41;1.92;;;1.17;;
46781;SDS011;32541;46.298;11.506;2023-04-16T07:58:06;3.30;;;2.33;;
46781;SDS011;32541;46.298;11.506;2023-04-16T08:00:33;2.55;;;1.42;;
46781;SDS011;32541;46.298;11.506;2023-04-16T08:02:59;2.55;;;1.60;;
46781;SDS011;32541;46.298;11.506;2023-04-16T08:05:25;4.00;;;0.90;;
46781;SDS011;32541;46.298;11.506;2023-04-16T08:07:52;1.92;;;0.95;;
46781;SDS011;32541;46.298;11.506;2023-04-16T08:10:17;1.15;;;1.00;;
46781;SDS011;32541;46.298;11.506;2023-04-16T08:12:42;3.33;;;1.60;;
46781;SDS011;32541;46.298;11.506;2023-04-16T08:15:08;1.33;;;1.00;;
46781;SDS011;32541;46.298;11.506;2023-04-16T08:17:34;2.65;;;1.30;;
46781;SDS011;32541;46.298;11.506;2023-04-16T08:20:00;1.27;;;1.00;;
46781;SDS011;32541;46.298;11.506;2023-04-16T08:22:25;3.08;;;1.55;;
46781;SDS011;32541;46.298;11.506;2023-04-16T08:24:51;1.90;;;0.90;;
46781;SDS011;32541;46.298;11.506;2023-04-16T08:27:16;4.82;;;1.10;;
46781;SDS011;32541;46.298;11.506;2023-04-16T08:29:42;2.60;;;1.00;;
46781;SDS011;32541;46.298;11.506;2023-04-16T08:32:07;0.80;;;0.50;;
46781;SDS011;32541;46.298;11.506;2023-04-16T08:34:34;0.73;;;0.40;;
46781;SDS011;32541;46.298;11.506;2023-04-16T08:37:00;0.90;;;0.50;;
46781;SDS011;32541;46.298;11.506;2023-04-16T08:39:25;0.30;;;0.30;;
46781;SDS011;32541;46.298;11.506;2023-04-16T08:41:51;0.55;;;0.43;;
46781;SDS011;32541;46.298;11.506;2023-04-16T08:44:25;0.73;;;0.30;;
46781;SDS011;32541;46.298;11.506;2023-04-16T08:46:55;0.47;;;0.10;;
46781;SDS011;32541;46.298;11.506;2023-04-16T08:49:22;0.22;;;0.20;;
46781;SDS011;32541;46.298;11.506;2023-04-16T08:51:50;0.30;;;0.10;;
46781;SDS011;32541;46.298;11.506;2023-04-16T08:54:30;1.42;;;0.45;;
46781;SDS011;32541;46.298;11.506;2023-04-16T08:56:58;0.25;;;0.17;;
46781;SDS011;32541;46.298;11.506;2023-04-16T08:59:26;0.50;;;0.30;;
46781;SDS011;32541;46.298;11.506;2023-04-16T09:01:59;0.43;;;0.20;;
46781;SDS011;32541;46.298;11.506;2023-04-16T09:04:27;1.38;;;0.40;;
46781;SDS011;32541;46.298;11.506;2023-04-16T09:06:57;1.75;;;0.93;;
46781;SDS011;32541;46.298;11.506;2023-04-16T09:09:23;2.17;;;1.05;;
46781;SDS011;32541;46.298;11.506;2023-04-16T09:11:51;1.27;;;0.20;;
46781;SDS011;32541;46.298;11.506;2023-04-16T09:14:18;0.90;;;0.50;;
46781;SDS011;32541;46.298;11.506;2023-04-16T09:16:47;1.80;;;1.45;;
46781;SDS011;32541;46.298;11.506;2023-04-16T09:19:13;3.80;;;0.75;;
46781;SDS011;32541;46.298;11.506;2023-04-16T09:21:40;0.98;;;0.35;;
46781;SDS011;32541;46.298;11.506;2023-04-16T09:24:07;2.60;;;0.28;;
46781;SDS011;32541;46.298;11.506;2023-04-16T09:26:34;0.20;;;0.10;;
46781;SDS011;32541;46.298;11.506;2023-04-16T09:29:00;0.60;;;0.30;;
46781;SDS011;32541;46.298;11.506;2023-04-16T09:31:25;0.22;;;0.10;;
46781;SDS011;32541;46.298;11.506;2023-04-16T09:34:01;6.38;;;0.45;;
46781;SDS011;32541;46.298;11.506;2023-04-16T09:36:33;1.77;;;0.25;;
46781;SDS011;32541;46.298;11.506;2023-04-16T09:38:59;0.73;;;0.20;;
46781;SDS011;32541;46.298;11.506;2023-04-16T09:41:29;2.85;;;0.35;;
46781;SDS011;32541;46.298;11.506;2023-04-16T09:43:57;1.05;;;0.30;;
46781;SDS011;32541;46.298;11.506;2023-04-16T09:46:28;0.52;;;0.20;;
46781;SDS011;32541;46.298;11.506;2023-04-16T09:48:55;2.10;;;0.50;;
46781;SDS011;32541;46.298;11.506;2023-04-16T09:51:20;1.50;;;0.20;;
46781;SDS011;32541;46.298;11.506;2023-04-16T09:53:46;1.30;;;0.43;;
46781;SDS011;32541;46.298;11.506;2023-04-16T09:56:12;0.35;;;0.20;;
46781;SDS011;32541;46.298;11.506;2023-04-16T09:58:38;5.95;;;0.73;;
46781;SDS011;32541;46.298;11.506;2023-04-16T10:03:34;2.70;;;1.00;;
46781;SDS011;32541;46.298;11.506;2023-04-16T10:08:31;71.93;;;47.08;;
46781;SDS011;32541;46.298;11.506;2023-04-16T10:10:56;27.23;;;17.25;;
46781;SDS011;32541;46.298;11.506;2023-04-16T10:13:22;0.73;;;0.60;;
46781;SDS011;32541;46.298;11.506;2023-04-16T10:15:52;0.77;;;0.30;;
46781;SDS011;32541;46.298;11.506;2023-04-16T10:18:21;0.50;;;0.17;;
46781;SDS011;32541;46.298;11.506;2023-04-16T10:20:47;1.40;;;0.65;;
46781;SDS011;32541;46.298;11.506;2023-04-16T10:23:13;1.90;;;0.40;;
46781;SDS011;32541;46.298;11.506;2023-04-16T10:25:39;3.15;;;1.77;;
46781;SDS011;32541;46.298;11.506;2023-04-16T10:28:04;0.70;;;0.20;;
46781;SDS011;32541;46.298;11.506;2023-04-16T10:30:31;0.22;;;0.10;;
46781;SDS011;32541;46.298;11.506;2023-04-16T10:32:57;0.15;;;0.15;;
46781;SDS011;32541;46.298;11.506;2023-04-16T10:35:24;7.80;;;5.22;;
46781;SDS011;32541;46.298;11.506;2023-04-16T10:37:54;2.28;;;1.30;;
46781;SDS011;32541;46.298;11.506;2023-04-16T10:40:24;0.35;;;0.20;;
46781;SDS011;32541;46.298;11.506;2023-04-16T10:42:57;1.90;;;0.70;;
46781;SDS011;32541;46.298;11.506;2023-04-16T10:45:30;0.13;;;0.13;;
46781;SDS011;32541;46.298;11.506;2023-04-16T10:48:05;1.80;;;0.30;;
46781;SDS011;32541;46.298;11.506;2023-04-16T10:50:36;0.28;;;0.13;;
46781;SDS011;32541;46.298;11.506;2023-04-16T10:53:44;3.38;;;0.88;;
46781;SDS011;32541;46.298;11.506;2023-04-16T10:58:30;1.85;;;0.70;;
46781;SDS011;32541;46.298;11.506;2023-04-16T11:00:59;4.50;;;0.85;;
46781;SDS011;32541;46.298;11.506;2023-04-16T11:03:31;6.03;;;0.98;;
46781;SDS011;32541;46.298;11.506;2023-04-16T11:06:13;3.80;;;0.57;;
46781;SDS011;32541;46.298;11.506;2023-04-16T11:08:41;2.42;;;0.68;;
46781;SDS011;32541;46.298;11.506;2023-04-16T11:11:10;3.67;;;1.85;;
46781;SDS011;32541;46.298;11.506;2023-04-16T11:13:36;1.60;;;1.13;;
46781;SDS011;32541;46.298;11.506;2023-04-16T11:16:02;1.48;;;0.65;;
46781;SDS011;32541;46.298;11.506;2023-04-16T11:18:28;0.20;;;0.17;;
46781;SDS011;32541;46.298;11.506;2023-04-16T11:20:54;2.22;;;0.40;;
46781;SDS011;32541;46.298;11.506;2023-04-16T11:23:19;2.28;;;0.50;;
46781;SDS011;32541;46.298;11.506;2023-04-16T11:25:45;1.63;;;0.50;;
46781;SDS011;32541;46.298;11.506;2023-04-16T11:28:10;1.70;;;0.40;;
46781;SDS011;32541;46.298;11.506;2023-04-16T11:30:36;0.90;;;0.45;;
46781;SDS011;32541;46.298;11.506;2023-04-16T11:35:29;1.33;;;0.40;;
46781;SDS011;32541;46.298;11.506;2023-04-16T11:37:54;0.63;;;0.20;;
46781;SDS011;32541;46.298;11.506;2023-04-16T11:40:21;1.70;;;1.48;;
46781;SDS011;32541;46.298;11.506;2023-04-16T11:42:46;1.70;;;1.35;;
46781;SDS011;32541;46.298;11.506;2023-04-16T11:45:12;1.20;;;0.80;;
46781;SDS011;32541;46.298;11.506;2023-04-16T11:47:56;2.63;;;1.55;;
46781;SDS011;32541;46.298;11.506;2023-04-16T11:50:25;1.92;;;1.13;;
46781;SDS011;32541;46.298;11.506;2023-04-16T11:52:54;13.65;;;8.68;;
46781;SDS011;32541;46.298;11.506;2023-04-16T11:55:22;3.50;;;2.22;;
46781;SDS011;32541;46.298;11.506;2023-04-16T11:57:48;3.85;;;1.77;;
46781;SDS011;32541;46.298;11.506;2023-04-16T12:00:14;2.47;;;1.83;;
46781;SDS011;32541;46.298;11.506;2023-04-16T12:05:07;2.88;;;1.40;;
46781;SDS011;32541;46.298;11.506;2023-04-16T12:07:54;3.67;;;1.42;;
46781;SDS011;32541;46.298;11.506;2023-04-16T12:10:20;11.93;;;6.45;;
46781;SDS011;32541;46.298;11.506;2023-04-16T12:12:45;2.03;;;0.98;;
46781;SDS011;32541;46.298;11.506;2023-04-16T12:15:11;5.40;;;1.30;;
46781;SDS011;32541;46.298;11.506;2023-04-16T12:17:36;0.85;;;0.60;;
46781;SDS011;32541;46.298;11.506;2023-04-16T12:20:03;1.55;;;1.35;;
46781;SDS011;32541;46.298;11.506;2023-04-16T12:22:33;1.90;;;0.20;;
46781;SDS011;32541;46.298;11.506;2023-04-16T12:25:07;0.32;;;0.25;;
46781;SDS011;32541;46.298;11.506;2023-04-16T12:30:11;0.95;;;0.40;;
46781;SDS011;32541;46.298;11.506;2023-04-16T12:32:37;1.25;;;0.80;;
46781;SDS011;32541;46.298;11.506;2023-04-16T12:35:03;1.38;;;0.17;;
46781;SDS011;32541;46.298;11.506;2023-04-16T12:37:29;0.32;;;0.30;;
46781;SDS011;32541;46.298;11.506;2023-04-16T12:39:54;0.75;;;0.32;;
46781;SDS011;32541;46.298;11.506;2023-04-16T12:42:20;0.40;;;0.40;;
46781;SDS011;32541;46.298;11.506;2023-04-16T12:44:45;0.43;;;0.43;;
46781;SDS011;32541;46.298;11.506;2023-04-16T12:47:11;1.30;;;0.38;;
46781;SDS011;32541;46.298;11.506;2023-04-16T12:49:36;0.93;;;0.57;;
46781;SDS011;32541;46.298;11.506;2023-04-16T12:52:02;2.10;;;0.40;;
46781;SDS011;32541;46.298;11.506;2023-04-16T12:54:27;0.70;;;0.40;;
46781;SDS011;32541;46.298;11.506;2023-04-16T12:56:55;1.35;;;0.50;;
46781;SDS011;32541;46.298;11.506;2023-04-16T12:59:23;1.60;;;0.57;;
46781;SDS011;32541;46.298;11.506;2023-04-16T13:01:48;2.42;;;0.82;;
46781;SDS011;32541;46.298;11.506;2023-04-16T13:04:13;1.08;;;0.98;;
46781;SDS011;32541;46.298;11.506;2023-04-16T13:06:39;3.40;;;2.63;;
46781;SDS011;32541;46.298;11.506;2023-04-16T13:09:04;6.40;;;1.27;;
46781;SDS011;32541;46.298;11.506;2023-04-16T13:11:30;1.98;;;0.38;;
46781;SDS011;32541;46.298;11.506;2023-04-16T13:13:56;0.30;;;0.20;;
46781;SDS011;32541;46.298;11.506;2023-04-16T13:16:22;9.10;;;8.20;;
46781;SDS011;32541;46.298;11.506;2023-04-16T13:18:48;8.93;;;5.97;;
46781;SDS011;32541;46.298;11.506;2023-04-16T13:21:13;14.40;;;10.88;;
46781;SDS011;32541;46.298;11.506;2023-04-16T13:23:39;0.63;;;0.52;;
46781;SDS011;32541;46.298;11.506;2023-04-16T13:26:04;1.10;;;0.80;;
46781;SDS011;32541;46.298;11.506;2023-04-16T13:28:30;1.17;;;0.57;;
46781;SDS011;32541;46.298;11.506;2023-04-16T13:30:55;0.17;;;0.10;;
46781;SDS011;32541;46.298;11.506;2023-04-16T13:33:21;0.35;;;0.20;;
46781;SDS011;32541;46.298;11.506;2023-04-16T13:35:50;0.30;;;0.20;;
46781;SDS011;32541;46.298;11.506;2023-04-16T13:38:15;1.23;;;0.20;;
46781;SDS011;32541;46.298;11.506;2023-04-16T13:40:41;0.30;;;0.20;;
46781;SDS011;32541;46.298;11.506;2023-04-16T13:43:06;1.90;;;0.50;;
46781;SDS011;32541;46.298;11.506;2023-04-16T13:45:32;0.65;;;0.20;;
46781;SDS011;32541;46.298;11.506;2023-04-16T13:47:58;0.47;;;0.15;;
46781;SDS011;32541;46.298;11.506;2023-04-16T13:50:23;0.40;;;0.10;;
46781;SDS011;32541;46.298;11.506;2023-04-16T13:52:49;0.20;;;0.10;;
46781;SDS011;32541;46.298;11.506;2023-04-16T13:55:15;0.10;;;0.10;;
46781;SDS011;32541;46.298;11.506;2023-04-16T13:57:43;1.60;;;0.30;;
46781;SDS011;32541;46.298;11.506;2023-04-16T14:00:12;0.30;;;0.20;;
46781;SDS011;32541;46.298;11.506;2023-04-16T14:02:41;0.22;;;0.22;;
46781;SDS011;32541;46.298;11.506;2023-04-16T14:05:06;0.93;;;0.30;;
46781;SDS011;32541;46.298;11.506;2023-04-16T14:07:32;0.55;;;0.10;;
46781;SDS011;32541;46.298;11.506;2023-04-16T14:09:57;5.15;;;4.25;;
46781;SDS011;32541;46.298;11.506;2023-04-16T14:12:23;2.25;;;1.02;;
46781;SDS011;32541;46.298;11.506;2023-04-16T14:14:48;0.20;;;0.20;;
46781;SDS011;32541;46.298;11.506;2023-04-16T14:17:14;2.38;;;0.43;;
46781;SDS011;32541;46.298;11.506;2023-04-16T14:19:39;1.13;;;0.80;;
46781;SDS011;32541;46.298;11.506;2023-04-16T14:22:04;1.65;;;0.75;;
46781;SDS011;32541;46.298;11.506;2023-04-16T14:24:30;0.95;;;0.80;;
46781;SDS011;32541;46.298;11.506;2023-04-16T14:26:55;0.17;;;0.10;;
46781;SDS011;32541;46.298;11.506;2023-04-16T14:29:21;2.92;;;1.45;;
46781;SDS011;32541;46.298;11.506;2023-04-16T14:31:46;1.17;;;0.20;;
46781;SDS011;32541;46.298;11.506;2023-04-16T14:34:12;0.50;;;0.22;;
46781;SDS011;32541;46.298;11.506;2023-04-16T14:36:37;0.50;;;0.20;;
46781;SDS011;32541;46.298;11.506;2023-04-16T14:39:02;0.40;;;0.20;;
46781;SDS011;32541;46.298;11.506;2023-04-16T14:41:29;0.25;;;0.20;;
46781;SDS011;32541;46.298;11.506;2023-04-16T14:43:54;0.35;;;0.35;;